sensor_id;sensor_type;location;lat;lon;timestamp;P1;durP1;ratioP1;P2;durP2;ratioP2
19183;SDS011;9724;51.194;6.856;2022-11-30T00:00:11;82.63;;;28.03;;
19183;SDS011;9724;51.194;6.856;2022-11-30T00:02:38;82.10;;;27.60;;
19183;SDS011;9724;51.194;6.856;2022-11-30T00:05:04;88.23;;;28.03;;
19183;SDS011;9724;51.194;6.856;2022-11-30T00:07:32;83.80;;;26.97;;
19183;SDS011;9724;51.194;6.856;2022-11-30T00:09:58;89.90;;;27.47;;
19183;SDS011;9724;51.194;6.856;2022-11-30T00:12:25;85.27;;;27.63;;
19183;SDS011;9724;51.194;6.856;2022-11-30T00:14:53;80.07;;;27.33;;
19183;SDS011;9724;51.194;6.856;2022-11-30T00:17:19;87.37;;;28.50;;
19183;SDS011;9724;51.194;6.856;2022-11-30T00:19:45;92.10;;;28.07;;
19183;SDS011;9724;51.194;6.856;2022-11-30T00:22:11;82.77;;;27.23;;
19183;SDS011;9724;51.194;6.856;2022-11-30T00:24:38;81.33;;;27.97;;
19183;SDS011;9724;51.194;6.856;2022-11-30T00:27:04;96.33;;;29.20;;
19183;SDS011;9724;51.194;6.856;2022-11-30T00:29:30;93.17;;;28.03;;
19183;SDS011;9724;51.194;6.856;2022-11-30T00:31:57;77.63;;;26.50;;
19183;SDS011;9724;51.194;6.856;2022-11-30T00:34:23;69.00;;;23.97;;
19183;SDS011;9724;51.194;6.856;2022-11-30T00:36:49;72.83;;;25.67;;
19183;SDS011;9724;51.194;6.856;2022-11-30T00:39:15;72.93;;;24.70;;
19183;SDS011;9724;51.194;6.856;2022-11-30T00:41:41;82.47;;;27.63;;
19183;SDS011;9724;51.194;6.856;2022-11-30T00:44:08;68.73;;;25.07;;
19183;SDS011;9724;51.194;6.856;2022-11-30T00:46:34;77.40;;;25.47;;
19183;SDS011;9724;51.194;6.856;2022-11-30T00:49:01;73.47;;;25.13;;
19183;SDS011;9724;51.194;6.856;2022-11-30T00:51:27;70.10;;;23.77;;
19183;SDS011;9724;51.194;6.856;2022-11-30T00:53:53;69.50;;;24.30;;
19183;SDS011;9724;51.194;6.856;2022-11-30T00:56:19;69.97;;;24.13;;
19183;SDS011;9724;51.194;6.856;2022-11-30T00:58:46;62.87;;;23.30;;
19183;SDS011;9724;51.194;6.856;2022-11-30T01:01:12;68.73;;;24.20;;
19183;SDS011;9724;51.194;6.856;2022-11-30T01:03:39;74.13;;;25.03;;
19183;SDS011;9724;51.194;6.856;2022-11-30T01:06:06;68.60;;;23.10;;
19183;SDS011;9724;51.194;6.856;2022-11-30T01:08:34;65.97;;;24.00;;
19183;SDS011;9724;51.194;6.856;2022-11-30T01:11:04;65.60;;;24.60;;
19183;SDS011;9724;51.194;6.856;2022-11-30T01:13:32;68.77;;;24.83;;
19183;SDS011;9724;51.194;6.856;2022-11-30T01:15:58;70.07;;;24.83;;
19183;SDS011;9724;51.194;6.856;2022-11-30T01:18:25;68.37;;;24.57;;
19183;SDS011;9724;51.194;6.856;2022-11-30T01:20:51;66.20;;;24.43;;
19183;SDS011;9724;51.194;6.856;2022-11-30T01:23:18;73.87;;;24.67;;
19183;SDS011;9724;51.194;6.856;2022-11-30T01:25:51;78.93;;;26.20;;
19183;SDS011;9724;51.194;6.856;2022-11-30T01:28:18;71.90;;;25.23;;
19183;SDS011;9724;51.194;6.856;2022-11-30T01:30:44;69.80;;;24.43;;
19183;SDS011;9724;51.194;6.856;2022-11-30T01:33:20;72.33;;;25.47;;
19183;SDS011;9724;51.194;6.856;2022-11-30T01:35:47;72.40;;;26.13;;
19183;SDS011;9724;51.194;6.856;2022-11-30T01:38:14;66.67;;;24.77;;
19183;SDS011;9724;51.194;6.856;2022-11-30T01:40:40;80.30;;;26.00;;
19183;SDS011;9724;51.194;6.856;2022-11-30T01:43:18;68.97;;;25.40;;
19183;SDS011;9724;51.194;6.856;2022-11-30T01:45:46;74.30;;;25.50;;
19183;SDS011;9724;51.194;6.856;2022-11-30T01:48:12;77.83;;;26.33;;
19183;SDS011;9724;51.194;6.856;2022-11-30T01:50:39;74.73;;;26.40;;
19183;SDS011;9724;51.194;6.856;2022-11-30T01:53:05;70.67;;;24.33;;
19183;SDS011;9724;51.194;6.856;2022-11-30T01:55:35;83.87;;;26.93;;
19183;SDS011;9724;51.194;6.856;2022-11-30T01:58:05;75.33;;;25.50;;
19183;SDS011;9724;51.194;6.856;2022-11-30T02:00:32;79.10;;;25.10;;
19183;SDS011;9724;51.194;6.856;2022-11-30T02:02:59;75.67;;;26.00;;
19183;SDS011;9724;51.194;6.856;2022-11-30T02:05:27;75.17;;;26.20;;
19183;SDS011;9724;51.194;6.856;2022-11-30T02:07:54;74.87;;;26.03;;
19183;SDS011;9724;51.194;6.856;2022-11-30T02:10:21;85.10;;;26.87;;
19183;SDS011;9724;51.194;6.856;2022-11-30T02:12:59;83.17;;;27.20;;
19183;SDS011;9724;51.194;6.856;2022-11-30T02:15:45;82.27;;;26.43;;
19183;SDS011;9724;51.194;6.856;2022-11-30T02:18:16;85.83;;;28.17;;
19183;SDS011;9724;51.194;6.856;2022-11-30T02:20:49;81.47;;;27.00;;
19183;SDS011;9724;51.194;6.856;2022-11-30T02:23:32;95.57;;;28.10;;
19183;SDS011;9724;51.194;6.856;2022-11-30T02:26:13;89.47;;;28.07;;
19183;SDS011;9724;51.194;6.856;2022-11-30T02:28:57;98.90;;;29.23;;
19183;SDS011;9724;51.194;6.856;2022-11-30T02:31:29;94.83;;;29.10;;
19183;SDS011;9724;51.194;6.856;2022-11-30T02:33:58;101.63;;;29.93;;
19183;SDS011;9724;51.194;6.856;2022-11-30T02:36:25;99.13;;;30.27;;
19183;SDS011;9724;51.194;6.856;2022-11-30T02:38:51;102.30;;;30.43;;
19183;SDS011;9724;51.194;6.856;2022-11-30T02:41:18;112.63;;;30.33;;
19183;SDS011;9724;51.194;6.856;2022-11-30T02:43:44;110.80;;;32.63;;
19183;SDS011;9724;51.194;6.856;2022-11-30T02:46:13;121.03;;;32.30;;
19183;SDS011;9724;51.194;6.856;2022-11-30T02:48:42;122.30;;;33.27;;
19183;SDS011;9724;51.194;6.856;2022-11-30T02:51:09;118.40;;;33.40;;
19183;SDS011;9724;51.194;6.856;2022-11-30T02:53:37;135.23;;;32.80;;
19183;SDS011;9724;51.194;6.856;2022-11-30T02:56:04;118.47;;;32.40;;
19183;SDS011;9724;51.194;6.856;2022-11-30T02:58:30;129.00;;;35.13;;
19183;SDS011;9724;51.194;6.856;2022-11-30T03:00:56;134.77;;;34.83;;
19183;SDS011;9724;51.194;6.856;2022-11-30T03:03:23;125.87;;;34.43;;
19183;SDS011;9724;51.194;6.856;2022-11-30T03:05:50;132.33;;;34.23;;
19183;SDS011;9724;51.194;6.856;2022-11-30T03:08:16;125.37;;;35.07;;
19183;SDS011;9724;51.194;6.856;2022-11-30T03:10:42;126.60;;;33.37;;
19183;SDS011;9724;51.194;6.856;2022-11-30T03:13:08;129.23;;;35.17;;
19183;SDS011;9724;51.194;6.856;2022-11-30T03:15:35;113.57;;;33.43;;
19183;SDS011;9724;51.194;6.856;2022-11-30T03:18:01;116.30;;;33.47;;
19183;SDS011;9724;51.194;6.856;2022-11-30T03:20:28;122.30;;;35.13;;
19183;SDS011;9724;51.194;6.856;2022-11-30T03:22:56;120.10;;;34.67;;
19183;SDS011;9724;51.194;6.856;2022-11-30T03:25:24;125.30;;;33.70;;
19183;SDS011;9724;51.194;6.856;2022-11-30T03:27:50;113.90;;;34.47;;
19183;SDS011;9724;51.194;6.856;2022-11-30T03:30:16;112.57;;;34.00;;
19183;SDS011;9724;51.194;6.856;2022-11-30T03:32:42;99.97;;;32.53;;
19183;SDS011;9724;51.194;6.856;2022-11-30T03:35:09;100.80;;;31.17;;
19183;SDS011;9724;51.194;6.856;2022-11-30T03:37:35;104.93;;;32.20;;
19183;SDS011;9724;51.194;6.856;2022-11-30T03:40:02;95.00;;;30.53;;
19183;SDS011;9724;51.194;6.856;2022-11-30T03:42:28;92.30;;;30.80;;
19183;SDS011;9724;51.194;6.856;2022-11-30T03:44:54;86.63;;;28.90;;
19183;SDS011;9724;51.194;6.856;2022-11-30T03:47:21;82.73;;;31.30;;
19183;SDS011;9724;51.194;6.856;2022-11-30T03:49:47;93.50;;;30.97;;
19183;SDS011;9724;51.194;6.856;2022-11-30T03:52:13;84.47;;;30.60;;
19183;SDS011;9724;51.194;6.856;2022-11-30T03:54:40;83.93;;;30.03;;
19183;SDS011;9724;51.194;6.856;2022-11-30T03:57:06;98.80;;;31.87;;
19183;SDS011;9724;51.194;6.856;2022-11-30T03:59:32;109.47;;;35.40;;
19183;SDS011;9724;51.194;6.856;2022-11-30T04:01:58;105.40;;;35.43;;
19183;SDS011;9724;51.194;6.856;2022-11-30T04:04:24;114.10;;;37.77;;
19183;SDS011;9724;51.194;6.856;2022-11-30T04:06:51;94.57;;;34.10;;
19183;SDS011;9724;51.194;6.856;2022-11-30T04:09:17;106.10;;;37.07;;
19183;SDS011;9724;51.194;6.856;2022-11-30T04:11:44;104.30;;;36.70;;
19183;SDS011;9724;51.194;6.856;2022-11-30T04:14:10;115.13;;;38.33;;
19183;SDS011;9724;51.194;6.856;2022-11-30T04:16:36;117.20;;;37.33;;
19183;SDS011;9724;51.194;6.856;2022-11-30T04:19:02;123.20;;;39.60;;
19183;SDS011;9724;51.194;6.856;2022-11-30T04:21:29;116.80;;;38.63;;
19183;SDS011;9724;51.194;6.856;2022-11-30T04:23:55;134.43;;;41.13;;
19183;SDS011;9724;51.194;6.856;2022-11-30T04:26:21;122.53;;;40.10;;
19183;SDS011;9724;51.194;6.856;2022-11-30T04:28:48;124.83;;;39.17;;
19183;SDS011;9724;51.194;6.856;2022-11-30T04:31:14;132.07;;;40.53;;
19183;SDS011;9724;51.194;6.856;2022-11-30T04:33:42;132.33;;;41.33;;
19183;SDS011;9724;51.194;6.856;2022-11-30T04:36:14;132.93;;;40.43;;
19183;SDS011;9724;51.194;6.856;2022-11-30T04:38:41;132.23;;;41.47;;
19183;SDS011;9724;51.194;6.856;2022-11-30T04:41:08;151.73;;;43.63;;
19183;SDS011;9724;51.194;6.856;2022-11-30T04:43:34;151.93;;;43.87;;
19183;SDS011;9724;51.194;6.856;2022-11-30T04:46:01;141.90;;;41.80;;
19183;SDS011;9724;51.194;6.856;2022-11-30T04:48:27;138.77;;;43.23;;
19183;SDS011;9724;51.194;6.856;2022-11-30T04:50:53;151.67;;;43.00;;
19183;SDS011;9724;51.194;6.856;2022-11-30T04:53:25;137.40;;;42.87;;
19183;SDS011;9724;51.194;6.856;2022-11-30T04:55:51;135.33;;;42.93;;
19183;SDS011;9724;51.194;6.856;2022-11-30T04:58:17;121.37;;;39.73;;
19183;SDS011;9724;51.194;6.856;2022-11-30T05:00:43;95.20;;;34.67;;
19183;SDS011;9724;51.194;6.856;2022-11-30T05:03:10;93.13;;;32.87;;
19183;SDS011;9724;51.194;6.856;2022-11-30T05:05:36;82.43;;;30.10;;
19183;SDS011;9724;51.194;6.856;2022-11-30T05:08:03;78.53;;;28.83;;
19183;SDS011;9724;51.194;6.856;2022-11-30T05:10:29;78.77;;;27.53;;
19183;SDS011;9724;51.194;6.856;2022-11-30T05:12:58;81.77;;;29.63;;
19183;SDS011;9724;51.194;6.856;2022-11-30T05:15:24;84.70;;;30.37;;
19183;SDS011;9724;51.194;6.856;2022-11-30T05:17:51;77.80;;;28.33;;
19183;SDS011;9724;51.194;6.856;2022-11-30T05:20:18;91.33;;;25.63;;
19183;SDS011;9724;51.194;6.856;2022-11-30T05:22:44;73.50;;;29.00;;
19183;SDS011;9724;51.194;6.856;2022-11-30T05:25:10;71.60;;;28.97;;
19183;SDS011;9724;51.194;6.856;2022-11-30T05:27:37;71.77;;;28.50;;
19183;SDS011;9724;51.194;6.856;2022-11-30T05:30:06;73.00;;;28.67;;
19183;SDS011;9724;51.194;6.856;2022-11-30T05:32:33;75.00;;;27.83;;
19183;SDS011;9724;51.194;6.856;2022-11-30T05:35:00;68.50;;;26.80;;
19183;SDS011;9724;51.194;6.856;2022-11-30T05:37:27;73.07;;;28.40;;
19183;SDS011;9724;51.194;6.856;2022-11-30T05:39:53;70.83;;;27.60;;
19183;SDS011;9724;51.194;6.856;2022-11-30T05:42:19;67.77;;;26.83;;
19183;SDS011;9724;51.194;6.856;2022-11-30T05:44:45;64.27;;;27.03;;
19183;SDS011;9724;51.194;6.856;2022-11-30T05:47:13;60.47;;;26.07;;
19183;SDS011;9724;51.194;6.856;2022-11-30T05:49:39;67.17;;;26.77;;
19183;SDS011;9724;51.194;6.856;2022-11-30T05:52:05;60.00;;;25.30;;
19183;SDS011;9724;51.194;6.856;2022-11-30T05:54:32;66.37;;;26.53;;
19183;SDS011;9724;51.194;6.856;2022-11-30T05:56:59;60.47;;;24.63;;
19183;SDS011;9724;51.194;6.856;2022-11-30T05:59:25;63.87;;;25.80;;
19183;SDS011;9724;51.194;6.856;2022-11-30T06:01:51;57.30;;;23.97;;
19183;SDS011;9724;51.194;6.856;2022-11-30T06:04:18;54.67;;;24.73;;
19183;SDS011;9724;51.194;6.856;2022-11-30T06:06:44;56.00;;;23.83;;
19183;SDS011;9724;51.194;6.856;2022-11-30T06:09:11;58.80;;;25.10;;
19183;SDS011;9724;51.194;6.856;2022-11-30T06:11:37;52.17;;;24.27;;
19183;SDS011;9724;51.194;6.856;2022-11-30T06:14:04;58.67;;;24.07;;
19183;SDS011;9724;51.194;6.856;2022-11-30T06:16:30;50.57;;;22.40;;
19183;SDS011;9724;51.194;6.856;2022-11-30T06:18:56;52.17;;;22.53;;
19183;SDS011;9724;51.194;6.856;2022-11-30T06:21:22;50.20;;;21.73;;
19183;SDS011;9724;51.194;6.856;2022-11-30T06:23:50;48.03;;;21.50;;
19183;SDS011;9724;51.194;6.856;2022-11-30T06:26:16;52.00;;;22.83;;
19183;SDS011;9724;51.194;6.856;2022-11-30T06:28:43;50.33;;;22.57;;
19183;SDS011;9724;51.194;6.856;2022-11-30T06:31:14;48.73;;;22.83;;
19183;SDS011;9724;51.194;6.856;2022-11-30T06:33:41;52.27;;;22.90;;
19183;SDS011;9724;51.194;6.856;2022-11-30T06:36:07;45.53;;;20.40;;
19183;SDS011;9724;51.194;6.856;2022-11-30T06:38:34;43.43;;;21.77;;
19183;SDS011;9724;51.194;6.856;2022-11-30T06:41:03;52.43;;;22.73;;
19183;SDS011;9724;51.194;6.856;2022-11-30T06:43:31;51.80;;;22.63;;
19183;SDS011;9724;51.194;6.856;2022-11-30T06:45:59;49.63;;;21.47;;
19183;SDS011;9724;51.194;6.856;2022-11-30T06:48:26;53.13;;;23.63;;
19183;SDS011;9724;51.194;6.856;2022-11-30T06:50:53;51.43;;;22.60;;
19183;SDS011;9724;51.194;6.856;2022-11-30T06:53:19;50.93;;;22.17;;
19183;SDS011;9724;51.194;6.856;2022-11-30T06:55:46;52.73;;;23.33;;
19183;SDS011;9724;51.194;6.856;2022-11-30T06:58:12;49.50;;;21.87;;
19183;SDS011;9724;51.194;6.856;2022-11-30T07:00:38;53.57;;;23.13;;
19183;SDS011;9724;51.194;6.856;2022-11-30T07:03:06;48.73;;;21.17;;
19183;SDS011;9724;51.194;6.856;2022-11-30T07:05:33;46.27;;;21.63;;
19183;SDS011;9724;51.194;6.856;2022-11-30T07:07:59;53.47;;;21.73;;
19183;SDS011;9724;51.194;6.856;2022-11-30T07:10:26;44.37;;;21.13;;
19183;SDS011;9724;51.194;6.856;2022-11-30T07:12:52;47.60;;;22.50;;
19183;SDS011;9724;51.194;6.856;2022-11-30T07:15:18;46.57;;;21.87;;
19183;SDS011;9724;51.194;6.856;2022-11-30T07:17:44;50.30;;;22.83;;
19183;SDS011;9724;51.194;6.856;2022-11-30T07:20:11;47.50;;;20.77;;
19183;SDS011;9724;51.194;6.856;2022-11-30T07:22:38;46.50;;;22.17;;
19183;SDS011;9724;51.194;6.856;2022-11-30T07:25:04;47.80;;;22.87;;
19183;SDS011;9724;51.194;6.856;2022-11-30T07:27:49;49.03;;;22.47;;
19183;SDS011;9724;51.194;6.856;2022-11-30T07:30:15;46.93;;;22.57;;
19183;SDS011;9724;51.194;6.856;2022-11-30T07:32:42;48.10;;;21.63;;
19183;SDS011;9724;51.194;6.856;2022-11-30T07:35:08;47.07;;;22.00;;
19183;SDS011;9724;51.194;6.856;2022-11-30T07:37:35;45.23;;;21.47;;
19183;SDS011;9724;51.194;6.856;2022-11-30T07:40:01;44.60;;;20.50;;
19183;SDS011;9724;51.194;6.856;2022-11-30T07:42:28;50.90;;;22.50;;
19183;SDS011;9724;51.194;6.856;2022-11-30T07:44:55;44.97;;;20.97;;
19183;SDS011;9724;51.194;6.856;2022-11-30T07:47:24;41.90;;;21.13;;
19183;SDS011;9724;51.194;6.856;2022-11-30T07:49:50;49.07;;;22.60;;
19183;SDS011;9724;51.194;6.856;2022-11-30T07:52:16;45.07;;;21.93;;
19183;SDS011;9724;51.194;6.856;2022-11-30T07:54:43;44.60;;;21.70;;
19183;SDS011;9724;51.194;6.856;2022-11-30T07:57:10;51.60;;;22.80;;
19183;SDS011;9724;51.194;6.856;2022-11-30T07:59:36;46.73;;;22.03;;
19183;SDS011;9724;51.194;6.856;2022-11-30T08:02:02;44.23;;;21.77;;
19183;SDS011;9724;51.194;6.856;2022-11-30T08:04:29;50.90;;;21.63;;
19183;SDS011;9724;51.194;6.856;2022-11-30T08:06:55;46.40;;;21.93;;
19183;SDS011;9724;51.194;6.856;2022-11-30T08:09:21;45.73;;;22.40;;
19183;SDS011;9724;51.194;6.856;2022-11-30T08:11:48;45.70;;;22.53;;
19183;SDS011;9724;51.194;6.856;2022-11-30T08:14:15;49.33;;;22.90;;
19183;SDS011;9724;51.194;6.856;2022-11-30T08:16:41;54.13;;;24.60;;
19183;SDS011;9724;51.194;6.856;2022-11-30T08:19:08;47.07;;;22.37;;
19183;SDS011;9724;51.194;6.856;2022-11-30T08:21:34;49.47;;;22.20;;
19183;SDS011;9724;51.194;6.856;2022-11-30T08:24:02;52.73;;;23.20;;
19183;SDS011;9724;51.194;6.856;2022-11-30T08:26:29;57.23;;;23.20;;
19183;SDS011;9724;51.194;6.856;2022-11-30T08:28:58;47.03;;;23.83;;
19183;SDS011;9724;51.194;6.856;2022-11-30T08:31:25;54.17;;;24.83;;
19183;SDS011;9724;51.194;6.856;2022-11-30T08:33:54;55.83;;;24.23;;
19183;SDS011;9724;51.194;6.856;2022-11-30T08:36:21;47.33;;;23.23;;
19183;SDS011;9724;51.194;6.856;2022-11-30T08:38:48;52.23;;;23.73;;
19183;SDS011;9724;51.194;6.856;2022-11-30T08:41:15;50.33;;;23.77;;
19183;SDS011;9724;51.194;6.856;2022-11-30T08:43:43;50.93;;;24.23;;
19183;SDS011;9724;51.194;6.856;2022-11-30T08:46:11;50.50;;;23.43;;
19183;SDS011;9724;51.194;6.856;2022-11-30T08:48:58;53.50;;;24.10;;
19183;SDS011;9724;51.194;6.856;2022-11-30T08:51:44;55.47;;;25.33;;
19183;SDS011;9724;51.194;6.856;2022-11-30T08:54:31;56.20;;;25.83;;
19183;SDS011;9724;51.194;6.856;2022-11-30T08:56:57;57.63;;;24.53;;
19183;SDS011;9724;51.194;6.856;2022-11-30T08:59:23;53.77;;;24.60;;
19183;SDS011;9724;51.194;6.856;2022-11-30T09:01:50;56.77;;;26.43;;
19183;SDS011;9724;51.194;6.856;2022-11-30T09:04:16;52.33;;;24.00;;
19183;SDS011;9724;51.194;6.856;2022-11-30T09:06:42;54.77;;;26.03;;
19183;SDS011;9724;51.194;6.856;2022-11-30T09:09:09;67.80;;;30.83;;
19183;SDS011;9724;51.194;6.856;2022-11-30T09:11:35;64.40;;;29.50;;
19183;SDS011;9724;51.194;6.856;2022-11-30T09:14:01;65.53;;;31.10;;
19183;SDS011;9724;51.194;6.856;2022-11-30T09:16:29;74.70;;;32.03;;
19183;SDS011;9724;51.194;6.856;2022-11-30T09:18:56;77.83;;;32.63;;
19183;SDS011;9724;51.194;6.856;2022-11-30T09:21:23;75.03;;;33.03;;
19183;SDS011;9724;51.194;6.856;2022-11-30T09:23:50;77.00;;;34.83;;
19183;SDS011;9724;51.194;6.856;2022-11-30T09:26:17;74.27;;;34.43;;
19183;SDS011;9724;51.194;6.856;2022-11-30T09:28:44;73.83;;;32.37;;
19183;SDS011;9724;51.194;6.856;2022-11-30T09:31:12;81.43;;;34.33;;
19183;SDS011;9724;51.194;6.856;2022-11-30T09:33:40;75.20;;;34.67;;
19183;SDS011;9724;51.194;6.856;2022-11-30T09:36:08;77.17;;;34.30;;
19183;SDS011;9724;51.194;6.856;2022-11-30T09:38:35;74.80;;;33.10;;
19183;SDS011;9724;51.194;6.856;2022-11-30T09:41:03;77.03;;;34.73;;
19183;SDS011;9724;51.194;6.856;2022-11-30T09:43:33;95.53;;;40.00;;
19183;SDS011;9724;51.194;6.856;2022-11-30T09:46:03;108.57;;;42.00;;
19183;SDS011;9724;51.194;6.856;2022-11-30T09:48:46;113.10;;;45.27;;
19183;SDS011;9724;51.194;6.856;2022-11-30T09:51:17;101.00;;;41.20;;
19183;SDS011;9724;51.194;6.856;2022-11-30T09:53:46;106.77;;;42.77;;
19183;SDS011;9724;51.194;6.856;2022-11-30T09:56:17;109.47;;;42.83;;
19183;SDS011;9724;51.194;6.856;2022-11-30T09:58:46;100.30;;;40.77;;
19183;SDS011;9724;51.194;6.856;2022-11-30T10:01:16;97.60;;;40.47;;
19183;SDS011;9724;51.194;6.856;2022-11-30T10:03:44;99.90;;;39.90;;
19183;SDS011;9724;51.194;6.856;2022-11-30T10:06:11;96.47;;;39.27;;
19183;SDS011;9724;51.194;6.856;2022-11-30T10:08:47;94.60;;;41.33;;
19183;SDS011;9724;51.194;6.856;2022-11-30T10:11:23;98.67;;;41.03;;
19183;SDS011;9724;51.194;6.856;2022-11-30T10:14:00;88.10;;;38.33;;
19183;SDS011;9724;51.194;6.856;2022-11-30T10:16:44;94.23;;;39.40;;
19183;SDS011;9724;51.194;6.856;2022-11-30T10:19:18;103.73;;;41.00;;
19183;SDS011;9724;51.194;6.856;2022-11-30T10:21:55;94.77;;;39.30;;
19183;SDS011;9724;51.194;6.856;2022-11-30T10:24:28;97.00;;;39.90;;
19183;SDS011;9724;51.194;6.856;2022-11-30T10:26:59;96.20;;;40.50;;
19183;SDS011;9724;51.194;6.856;2022-11-30T10:29:32;96.87;;;39.03;;
19183;SDS011;9724;51.194;6.856;2022-11-30T10:32:00;96.20;;;40.00;;
19183;SDS011;9724;51.194;6.856;2022-11-30T10:34:38;85.17;;;37.40;;
19183;SDS011;9724;51.194;6.856;2022-11-30T10:37:08;100.07;;;40.17;;
19183;SDS011;9724;51.194;6.856;2022-11-30T10:39:39;91.77;;;38.33;;
19183;SDS011;9724;51.194;6.856;2022-11-30T10:42:08;93.70;;;39.77;;
19183;SDS011;9724;51.194;6.856;2022-11-30T10:44:37;93.60;;;38.17;;
19183;SDS011;9724;51.194;6.856;2022-11-30T10:47:06;96.10;;;40.33;;
19183;SDS011;9724;51.194;6.856;2022-11-30T10:49:38;86.90;;;37.10;;
19183;SDS011;9724;51.194;6.856;2022-11-30T10:52:14;100.80;;;38.40;;
19183;SDS011;9724;51.194;6.856;2022-11-30T10:54:42;88.13;;;36.80;;
19183;SDS011;9724;51.194;6.856;2022-11-30T10:57:08;95.50;;;36.83;;
19183;SDS011;9724;51.194;6.856;2022-11-30T10:59:37;84.77;;;34.47;;
19183;SDS011;9724;51.194;6.856;2022-11-30T11:02:11;83.27;;;34.77;;
19183;SDS011;9724;51.194;6.856;2022-11-30T11:05:06;79.87;;;34.20;;
19183;SDS011;9724;51.194;6.856;2022-11-30T11:07:35;78.17;;;33.37;;
19183;SDS011;9724;51.194;6.856;2022-11-30T11:10:11;102.80;;;33.60;;
19183;SDS011;9724;51.194;6.856;2022-11-30T11:12:38;94.70;;;34.03;;
19183;SDS011;9724;51.194;6.856;2022-11-30T11:15:07;76.90;;;33.07;;
19183;SDS011;9724;51.194;6.856;2022-11-30T11:17:35;72.33;;;31.27;;
19183;SDS011;9724;51.194;6.856;2022-11-30T11:20:01;66.07;;;30.17;;
19183;SDS011;9724;51.194;6.856;2022-11-30T11:22:28;68.43;;;30.90;;
19183;SDS011;9724;51.194;6.856;2022-11-30T11:25:06;73.47;;;32.40;;
19183;SDS011;9724;51.194;6.856;2022-11-30T11:27:35;74.17;;;30.07;;
19183;SDS011;9724;51.194;6.856;2022-11-30T11:30:11;75.77;;;33.10;;
19183;SDS011;9724;51.194;6.856;2022-11-30T11:32:41;76.10;;;31.53;;
19183;SDS011;9724;51.194;6.856;2022-11-30T11:35:30;71.37;;;30.83;;
19183;SDS011;9724;51.194;6.856;2022-11-30T11:37:57;66.27;;;29.67;;
19183;SDS011;9724;51.194;6.856;2022-11-30T11:40:24;71.63;;;31.00;;
19183;SDS011;9724;51.194;6.856;2022-11-30T11:42:51;67.00;;;30.80;;
19183;SDS011;9724;51.194;6.856;2022-11-30T11:45:19;72.07;;;31.33;;
19183;SDS011;9724;51.194;6.856;2022-11-30T11:47:55;71.17;;;30.83;;
19183;SDS011;9724;51.194;6.856;2022-11-30T11:50:24;68.87;;;29.97;;
19183;SDS011;9724;51.194;6.856;2022-11-30T11:53:13;64.60;;;28.97;;
19183;SDS011;9724;51.194;6.856;2022-11-30T11:55:49;63.07;;;28.93;;
19183;SDS011;9724;51.194;6.856;2022-11-30T11:58:18;68.90;;;29.43;;
19183;SDS011;9724;51.194;6.856;2022-11-30T12:00:49;76.77;;;28.67;;
19183;SDS011;9724;51.194;6.856;2022-11-30T12:03:36;69.00;;;28.73;;
19183;SDS011;9724;51.194;6.856;2022-11-30T12:06:04;61.13;;;28.03;;
19183;SDS011;9724;51.194;6.856;2022-11-30T12:08:35;70.27;;;29.33;;
19183;SDS011;9724;51.194;6.856;2022-11-30T12:11:07;62.93;;;27.80;;
19183;SDS011;9724;51.194;6.856;2022-11-30T12:13:37;62.93;;;28.97;;
19183;SDS011;9724;51.194;6.856;2022-11-30T12:16:06;62.27;;;28.13;;
19183;SDS011;9724;51.194;6.856;2022-11-30T12:18:41;62.10;;;28.40;;
19183;SDS011;9724;51.194;6.856;2022-11-30T12:21:12;65.43;;;27.97;;
19183;SDS011;9724;51.194;6.856;2022-11-30T12:23:46;65.47;;;28.83;;
19183;SDS011;9724;51.194;6.856;2022-11-30T12:26:22;69.70;;;28.10;;
19183;SDS011;9724;51.194;6.856;2022-11-30T12:29:02;63.63;;;27.83;;
19183;SDS011;9724;51.194;6.856;2022-11-30T12:31:45;57.33;;;27.33;;
19183;SDS011;9724;51.194;6.856;2022-11-30T12:34:20;65.43;;;28.23;;
19183;SDS011;9724;51.194;6.856;2022-11-30T12:36:51;61.60;;;26.63;;
19183;SDS011;9724;51.194;6.856;2022-11-30T12:39:23;62.10;;;28.37;;
19183;SDS011;9724;51.194;6.856;2022-11-30T12:41:57;61.67;;;27.50;;
19183;SDS011;9724;51.194;6.856;2022-11-30T12:44:31;63.23;;;27.70;;
19183;SDS011;9724;51.194;6.856;2022-11-30T12:47:12;68.17;;;27.10;;
19183;SDS011;9724;51.194;6.856;2022-11-30T12:49:50;70.50;;;27.80;;
19183;SDS011;9724;51.194;6.856;2022-11-30T12:52:27;64.50;;;26.40;;
19183;SDS011;9724;51.194;6.856;2022-11-30T12:55:01;74.97;;;27.70;;
19183;SDS011;9724;51.194;6.856;2022-11-30T12:57:33;66.67;;;27.37;;
19183;SDS011;9724;51.194;6.856;2022-11-30T13:00:04;68.83;;;26.67;;
19183;SDS011;9724;51.194;6.856;2022-11-30T13:02:44;60.63;;;26.93;;
19183;SDS011;9724;51.194;6.856;2022-11-30T13:05:23;60.30;;;27.40;;
19183;SDS011;9724;51.194;6.856;2022-11-30T13:07:52;57.80;;;27.50;;
19183;SDS011;9724;51.194;6.856;2022-11-30T13:10:23;64.20;;;28.73;;
19183;SDS011;9724;51.194;6.856;2022-11-30T13:12:54;64.20;;;27.83;;
19183;SDS011;9724;51.194;6.856;2022-11-30T13:15:21;62.53;;;28.77;;
19183;SDS011;9724;51.194;6.856;2022-11-30T13:17:49;62.70;;;28.43;;
19183;SDS011;9724;51.194;6.856;2022-11-30T13:20:19;72.40;;;29.37;;
19183;SDS011;9724;51.194;6.856;2022-11-30T13:22:49;70.23;;;30.93;;
19183;SDS011;9724;51.194;6.856;2022-11-30T13:25:19;70.93;;;30.63;;
19183;SDS011;9724;51.194;6.856;2022-11-30T13:28:12;65.77;;;29.13;;
19183;SDS011;9724;51.194;6.856;2022-11-30T13:30:43;68.40;;;28.93;;
19183;SDS011;9724;51.194;6.856;2022-11-30T13:36:25;64.70;;;28.47;;
19183;SDS011;9724;51.194;6.856;2022-11-30T13:39:09;66.93;;;30.40;;
19183;SDS011;9724;51.194;6.856;2022-11-30T13:41:46;67.20;;;29.20;;
19183;SDS011;9724;51.194;6.856;2022-11-30T13:44:24;62.03;;;28.47;;
19183;SDS011;9724;51.194;6.856;2022-11-30T13:46:55;62.03;;;28.23;;
19183;SDS011;9724;51.194;6.856;2022-11-30T13:49:22;65.77;;;29.43;;
19183;SDS011;9724;51.194;6.856;2022-11-30T13:51:51;63.40;;;29.27;;
19183;SDS011;9724;51.194;6.856;2022-11-30T13:54:38;60.37;;;27.60;;
19183;SDS011;9724;51.194;6.856;2022-11-30T13:57:15;61.80;;;27.33;;
19183;SDS011;9724;51.194;6.856;2022-11-30T13:59:57;65.03;;;28.17;;
19183;SDS011;9724;51.194;6.856;2022-11-30T14:05:38;62.67;;;27.93;;
19183;SDS011;9724;51.194;6.856;2022-11-30T14:08:09;63.03;;;28.23;;
19183;SDS011;9724;51.194;6.856;2022-11-30T14:10:40;59.23;;;27.20;;
19183;SDS011;9724;51.194;6.856;2022-11-30T14:15:57;64.83;;;29.50;;
19183;SDS011;9724;51.194;6.856;2022-11-30T14:18:30;67.87;;;28.67;;
19183;SDS011;9724;51.194;6.856;2022-11-30T14:21:11;67.83;;;28.13;;
19183;SDS011;9724;51.194;6.856;2022-11-30T14:23:42;70.07;;;28.50;;
19183;SDS011;9724;51.194;6.856;2022-11-30T14:26:12;68.80;;;26.90;;
19183;SDS011;9724;51.194;6.856;2022-11-30T14:28:42;68.80;;;28.40;;
19183;SDS011;9724;51.194;6.856;2022-11-30T14:31:13;72.47;;;29.93;;
19183;SDS011;9724;51.194;6.856;2022-11-30T14:33:42;65.70;;;28.37;;
19183;SDS011;9724;51.194;6.856;2022-11-30T14:36:11;70.33;;;29.10;;
19183;SDS011;9724;51.194;6.856;2022-11-30T14:38:37;65.50;;;28.30;;
19183;SDS011;9724;51.194;6.856;2022-11-30T14:41:06;68.77;;;29.13;;
19183;SDS011;9724;51.194;6.856;2022-11-30T14:43:58;65.23;;;29.60;;
19183;SDS011;9724;51.194;6.856;2022-11-30T14:46:30;66.80;;;29.57;;
19183;SDS011;9724;51.194;6.856;2022-11-30T14:49:06;66.60;;;29.80;;
19183;SDS011;9724;51.194;6.856;2022-11-30T14:51:38;68.57;;;29.63;;
19183;SDS011;9724;51.194;6.856;2022-11-30T14:54:06;70.03;;;29.07;;